createdAt,value
2023-04-12T00:02:22.394Z,11.48
2023-04-12T00:04:55.507Z,11.55
2023-04-12T00:07:24.817Z,12.07
2023-04-12T00:09:51.692Z,12.27
2023-04-12T00:12:19.574Z,12.07
2023-04-12T00:14:47.292Z,13.18
2023-04-12T00:17:14.682Z,12.95
2023-04-12T00:19:45.027Z,13.68
2023-04-12T00:22:12.583Z,12.18
2023-04-12T00:24:40.851Z,12.95
2023-04-12T00:27:09.069Z,13.18
2023-04-12T00:29:36.233Z,12.52
2023-04-12T00:32:05.720Z,11.40
2023-04-12T00:37:01.384Z,12.68
2023-04-12T00:39:28.319Z,12.65
2023-04-12T00:41:57.069Z,12.07
2023-04-12T00:44:24.746Z,11.18
2023-04-12T00:46:52.025Z,11.32
2023-04-12T00:49:19.150Z,10.15
2023-04-12T00:51:46.511Z,9.88
2023-04-12T00:54:14.459Z,9.38
2023-04-12T00:56:41.790Z,10.13
2023-04-12T00:59:08.686Z,9.60
2023-04-12T01:01:41.426Z,9.10
2023-04-12T01:04:09.387Z,9.32
2023-04-12T01:07:01.757Z,9.35
2023-04-12T01:09:47.245Z,8.55
2023-04-12T01:12:29.650Z,7.93
2023-04-12T01:15:13.202Z,8.05
2023-04-12T01:18:09.829Z,7.95
2023-04-12T01:20:48.442Z,8.75
2023-04-12T01:23:29.885Z,9.93
2023-04-12T01:26:33.106Z,8.73
2023-04-12T01:29:04.797Z,9.00
2023-04-12T01:31:33.077Z,9.30
2023-04-12T01:34:03.359Z,9.00
2023-04-12T01:36:30.998Z,9.38
2023-04-12T01:38:58.302Z,8.52
2023-04-12T01:41:25.342Z,8.55
2023-04-12T01:43:52.497Z,8.63
2023-04-12T01:46:23.334Z,7.75
2023-04-12T01:48:53.596Z,7.18
2023-04-12T01:51:34.763Z,6.43
2023-04-12T01:54:12.171Z,7.00
2023-04-12T01:56:43.461Z,6.28
2023-04-12T01:59:14.934Z,6.38
2023-04-12T02:01:43.126Z,6.65
2023-04-12T02:04:11.764Z,6.75
2023-04-12T02:06:40.140Z,6.95
2023-04-12T02:09:07.315Z,7.18
2023-04-12T02:11:35.046Z,7.93
2023-04-12T02:14:02.256Z,6.30
2023-04-12T02:16:29.596Z,8.07
2023-04-12T02:18:57.525Z,7.03
2023-04-12T02:21:25.124Z,6.63
2023-04-12T02:23:52.284Z,6.55
2023-04-12T02:26:19.312Z,6.47
2023-04-12T02:28:46.471Z,6.88
2023-04-12T02:31:13.485Z,6.20
2023-04-12T02:33:41.278Z,6.22
2023-04-12T02:36:10.401Z,5.97
2023-04-12T02:38:37.575Z,6.30
2023-04-12T02:41:04.691Z,5.63
2023-04-12T02:43:33.229Z,5.80
2023-04-12T02:46:00.517Z,4.78
2023-04-12T02:48:27.758Z,5.40
2023-04-12T02:50:54.721Z,5.20
2023-04-12T02:53:21.898Z,5.32
2023-04-12T02:55:48.767Z,5.57
2023-04-12T02:58:16.690Z,5.75
2023-04-12T03:00:43.920Z,4.90
2023-04-12T03:03:11.342Z,4.90
2023-04-12T03:05:39.765Z,4.70
2023-04-12T03:08:06.967Z,4.63
2023-04-12T03:10:33.837Z,5.10
2023-04-12T03:13:01.049Z,4.38
2023-04-12T03:15:28.258Z,4.68
2023-04-12T03:17:55.614Z,3.85
2023-04-12T03:20:24.660Z,4.28
2023-04-12T03:25:18.785Z,3.47
2023-04-12T03:27:46.074Z,3.47
2023-04-12T03:30:13.434Z,3.30
2023-04-12T03:32:42.298Z,2.97
2023-04-12T03:35:10.252Z,3.40
2023-04-12T03:37:40.914Z,3.15
2023-04-12T03:40:08.650Z,4.00
2023-04-12T03:42:36.577Z,2.87
2023-04-12T03:45:03.808Z,2.75
2023-04-12T03:47:31.810Z,3.10
2023-04-12T03:50:11.373Z,3.53
2023-04-12T03:52:39.113Z,3.37
2023-04-12T03:55:07.916Z,3.60
2023-04-12T03:57:35.562Z,3.43
2023-04-12T04:00:02.853Z,3.70
2023-04-12T04:02:32.034Z,3.23
2023-04-12T04:04:59.376Z,3.80
2023-04-12T04:07:27.164Z,3.50
2023-04-12T04:09:55.338Z,3.30
2023-04-12T04:12:22.541Z,3.42
2023-04-12T04:14:49.405Z,3.57
2023-04-12T04:17:16.667Z,3.13
2023-04-12T04:19:43.533Z,3.43
2023-04-12T04:22:12.536Z,3.50
2023-04-12T04:24:40.230Z,3.50
2023-04-12T04:27:07.492Z,3.77
2023-04-12T04:29:34.490Z,3.53
2023-04-12T04:32:01.745Z,3.57
2023-04-12T04:34:28.719Z,3.93
2023-04-12T04:36:55.887Z,4.37
2023-04-12T04:39:23.081Z,4.40
2023-04-12T04:41:54.885Z,3.70
2023-04-12T04:44:22.464Z,4.03
2023-04-12T04:46:49.733Z,4.20
2023-04-12T04:49:16.684Z,4.20
2023-04-12T04:51:44.128Z,5.20
2023-04-12T04:54:11.404Z,4.73
2023-04-12T04:56:38.634Z,4.80
2023-04-12T04:59:05.555Z,45.97
2023-04-12T05:01:36.140Z,64.80
2023-04-12T05:04:04.276Z,39.03
2023-04-12T05:06:31.633Z,24.58
2023-04-12T05:08:58.724Z,9.33
2023-04-12T05:11:26.199Z,7.50
2023-04-12T05:13:53.519Z,7.18
2023-04-12T05:16:20.807Z,20.27
2023-04-12T05:18:47.723Z,14.77
2023-04-12T05:21:14.900Z,21.15
2023-04-12T05:23:46.849Z,44.63
2023-04-12T05:26:14.058Z,34.33
2023-04-12T05:28:41.351Z,39.53
2023-04-12T05:31:08.694Z,30.00
2023-04-12T05:33:36.890Z,24.00
2023-04-12T05:36:04.899Z,38.63
2023-04-12T05:38:31.876Z,23.47
2023-04-12T05:40:59.121Z,23.02
2023-04-12T05:43:26.127Z,32.60
2023-04-12T05:45:53.446Z,21.93
2023-04-12T05:48:20.531Z,17.85
2023-04-12T05:50:54.709Z,13.27
2023-04-12T05:53:22.106Z,17.53
2023-04-12T05:55:49.280Z,9.73
2023-04-12T05:58:16.178Z,9.60
2023-04-12T06:00:45.392Z,8.07
2023-04-12T06:03:12.602Z,7.70
2023-04-12T06:05:40.019Z,7.00
2023-04-12T06:08:08.669Z,7.87
2023-04-12T06:10:35.931Z,6.22
2023-04-12T06:13:02.865Z,6.20
2023-04-12T06:15:32.065Z,7.50
2023-04-12T06:18:00.558Z,5.90
2023-04-12T06:20:28.160Z,6.03
2023-04-12T06:22:55.185Z,9.52
2023-04-12T06:25:23.248Z,5.80
2023-04-12T06:27:50.601Z,6.07
2023-04-12T06:30:19.188Z,6.60
2023-04-12T06:32:46.257Z,6.80
2023-04-12T06:35:13.856Z,6.68
2023-04-12T06:37:40.751Z,6.80
2023-04-12T06:40:08.706Z,6.97
2023-04-12T06:42:36.382Z,8.93
2023-04-12T06:45:04.104Z,7.30
2023-04-12T06:47:32.673Z,7.17
2023-04-12T06:49:59.895Z,8.38
2023-04-12T06:52:27.466Z,8.30
2023-04-12T06:54:56.813Z,11.68
2023-04-12T06:59:51.582Z,17.90
2023-04-12T07:02:18.807Z,22.23
2023-04-12T07:04:46.408Z,25.67
2023-04-12T07:07:13.595Z,16.47
2023-04-12T07:09:40.883Z,14.33
2023-04-12T07:12:07.894Z,11.20
2023-04-12T07:14:35.114Z,9.48
2023-04-12T07:17:02.112Z,9.47
2023-04-12T07:19:31.406Z,10.03
2023-04-12T07:21:58.943Z,10.93
2023-04-12T07:24:26.229Z,11.43
2023-04-12T07:26:55.003Z,12.52
2023-04-12T07:29:22.463Z,10.18
2023-04-12T07:31:49.673Z,11.43
2023-04-12T07:34:17.197Z,11.10
2023-04-12T07:36:45.017Z,9.43
2023-04-12T07:39:12.682Z,11.07
2023-04-12T07:41:39.986Z,10.30
2023-04-12T07:44:07.233Z,9.50
2023-04-12T07:46:34.206Z,10.57
2023-04-12T07:49:01.656Z,10.27
2023-04-12T07:51:28.568Z,8.77
2023-04-12T07:53:55.928Z,8.15
2023-04-12T07:56:23.013Z,8.70
2023-04-12T07:58:50.301Z,9.73
2023-04-12T08:01:17.398Z,8.20
2023-04-12T08:03:44.626Z,7.55
2023-04-12T08:06:11.967Z,7.38
2023-04-12T08:08:39.259Z,7.00
2023-04-12T08:11:06.691Z,6.68
2023-04-12T08:13:35.250Z,6.75
2023-04-12T08:16:02.290Z,6.97
2023-04-12T08:18:29.882Z,6.68
2023-04-12T08:20:58.701Z,6.35
2023-04-12T08:23:26.268Z,7.03
2023-04-12T08:26:02.832Z,7.50
2023-04-12T08:28:31.152Z,6.45
2023-04-12T08:30:59.476Z,7.10
2023-04-12T08:33:27.416Z,6.93
2023-04-12T08:35:55.321Z,6.85
2023-04-12T08:38:30.773Z,7.35
2023-04-12T08:41:08.811Z,6.28
2023-04-12T08:43:38.154Z,8.98
2023-04-12T08:46:05.643Z,8.95
2023-04-12T08:48:33.555Z,6.70
2023-04-12T08:51:00.946Z,7.78
2023-04-12T08:53:28.257Z,7.13
2023-04-12T08:55:55.178Z,6.60
2023-04-12T08:58:23.277Z,7.05
2023-04-12T09:00:50.604Z,7.70
2023-04-12T09:03:18.218Z,7.22
2023-04-12T09:05:45.525Z,7.32
2023-04-12T09:08:13.017Z,8.32
2023-04-12T09:10:40.055Z,7.47
2023-04-12T09:13:07.450Z,7.80
2023-04-12T09:15:35.066Z,7.85
2023-04-12T09:18:10.604Z,6.95
2023-04-12T09:20:39.172Z,6.95
2023-04-12T09:23:22.601Z,6.65
2023-04-12T09:25:52.861Z,7.35
2023-04-12T09:28:28.030Z,6.65
2023-04-12T09:30:56.706Z,6.80
2023-04-12T09:33:38.484Z,6.38
2023-04-12T09:36:09.406Z,6.18
2023-04-12T09:38:37.305Z,6.80
2023-04-12T09:41:27.534Z,5.97
2023-04-12T09:43:54.906Z,5.65
2023-04-12T09:46:23.166Z,6.18
2023-04-12T09:48:52.699Z,6.13
2023-04-12T09:51:29.458Z,5.97
2023-04-12T09:53:59.967Z,6.25
2023-04-12T09:56:35.816Z,5.40
2023-04-12T09:59:07.264Z,5.47
2023-04-12T10:01:39.468Z,5.40
2023-04-12T10:04:08.775Z,5.03
2023-04-12T10:06:37.328Z,5.50
2023-04-12T10:09:05.586Z,4.82
2023-04-12T10:11:34.316Z,5.50
2023-04-12T10:14:07.095Z,5.25
2023-04-12T10:16:35.233Z,6.30
2023-04-12T10:19:04.112Z,6.30
2023-04-12T10:21:32.079Z,5.55
2023-04-12T10:23:59.797Z,4.50
2023-04-12T10:26:27.873Z,5.55
2023-04-12T10:29:25.543Z,4.22
2023-04-12T10:31:54.351Z,5.32
2023-04-12T10:34:31.466Z,5.75
2023-04-12T10:37:00.659Z,5.93
2023-04-12T10:39:41.543Z,5.80
2023-04-12T10:42:30.035Z,5.68
2023-04-12T10:45:25.623Z,5.80
2023-04-12T10:47:58.507Z,5.38
2023-04-12T10:50:32.914Z,4.80
2023-04-12T10:53:22.103Z,5.03
2023-04-12T10:55:49.315Z,5.65
2023-04-12T10:58:50.809Z,5.35
2023-04-12T11:01:18.928Z,5.55
2023-04-12T11:04:09.231Z,5.70
2023-04-12T11:07:11.819Z,5.30
2023-04-12T11:09:42.821Z,5.65
2023-04-12T11:12:11.104Z,5.70
2023-04-12T11:14:44.629Z,5.85
2023-04-12T11:17:15.044Z,7.28
2023-04-12T11:19:44.468Z,6.22
2023-04-12T11:22:14.375Z,6.50
2023-04-12T11:24:45.957Z,6.22
2023-04-12T11:27:12.961Z,7.22
2023-04-12T11:29:40.642Z,7.28
2023-04-12T11:32:12.966Z,8.00
2023-04-12T11:34:41.769Z,8.27
2023-04-12T11:37:09.654Z,8.20
2023-04-12T11:39:45.233Z,8.10
2023-04-12T11:42:17.572Z,8.25
2023-04-12T11:47:18.116Z,8.77
2023-04-12T11:52:21.763Z,8.18
2023-04-12T11:57:18.763Z,10.68
2023-04-12T11:59:47.734Z,10.38
2023-04-12T12:02:23.322Z,10.20
2023-04-12T12:04:52.469Z,9.23
2023-04-12T12:07:21.675Z,9.52
2023-04-12T12:09:50.716Z,8.90
2023-04-12T12:12:18.860Z,9.00
2023-04-12T12:14:48.916Z,8.18
2023-04-12T12:17:17.165Z,8.45
2023-04-12T12:19:45.800Z,9.05
2023-04-12T12:22:19.815Z,9.63
2023-04-12T12:24:48.162Z,8.40
2023-04-12T12:27:22.526Z,9.85
2023-04-12T12:29:55.247Z,9.65
2023-04-12T12:32:23.637Z,9.07
2023-04-12T12:34:53.564Z,8.60
2023-04-12T12:37:24.505Z,8.23
2023-04-12T12:40:14.086Z,9.70
2023-04-12T12:42:48.788Z,8.50
2023-04-12T12:45:17.691Z,8.27
2023-04-12T12:47:49.535Z,8.65
2023-04-12T12:50:18.704Z,9.02
2023-04-12T12:52:48.563Z,9.07
2023-04-12T12:55:17.227Z,9.23
2023-04-12T12:57:55.137Z,9.30
2023-04-12T13:00:29.520Z,9.18
2023-04-12T13:02:56.867Z,10.80
2023-04-12T13:05:24.520Z,9.77
2023-04-12T13:07:52.928Z,9.47
2023-04-12T13:10:20.558Z,10.45
2023-04-12T13:12:47.544Z,9.98
2023-04-12T13:17:45.056Z,10.90
2023-04-12T13:20:12.245Z,10.35
2023-04-12T13:22:39.160Z,10.52
2023-04-12T13:25:07.108Z,10.23
2023-04-12T13:27:34.004Z,10.77
2023-04-12T13:30:01.318Z,9.95
2023-04-12T13:32:28.331Z,11.35
2023-04-12T13:34:56.074Z,10.68
2023-04-12T13:37:23.164Z,11.65
2023-04-12T13:39:52.931Z,9.98
2023-04-12T13:42:20.282Z,10.90
2023-04-12T13:44:48.723Z,10.38
2023-04-12T13:47:19.108Z,10.38
2023-04-12T13:49:46.524Z,10.20
2023-04-12T13:52:13.563Z,8.85
2023-04-12T13:54:43.179Z,10.35
2023-04-12T13:57:10.538Z,9.98
2023-04-12T13:59:38.495Z,9.50
2023-04-12T14:02:05.592Z,9.15
2023-04-12T14:04:33.155Z,9.00
2023-04-12T14:07:00.165Z,9.43
2023-04-12T14:09:29.729Z,9.25
2023-04-12T14:14:27.411Z,8.55
2023-04-12T14:19:25.533Z,8.13
2023-04-12T14:21:52.776Z,8.18
2023-04-12T14:24:20.937Z,8.35
2023-04-12T14:26:50.307Z,8.52
2023-04-12T14:29:17.758Z,8.55
2023-04-12T14:31:44.640Z,9.82
2023-04-12T14:34:13.378Z,8.52
2023-04-12T14:36:40.770Z,12.45
2023-04-12T14:39:11.648Z,10.48
2023-04-12T14:41:40.727Z,9.73
2023-04-12T14:44:08.121Z,13.00
2023-04-12T14:46:35.091Z,10.07
2023-04-12T14:49:02.554Z,8.25
2023-04-12T14:51:29.914Z,98.78
2023-04-12T14:53:58.023Z,10.88
2023-04-12T14:56:29.218Z,9.80
2023-04-12T14:58:57.575Z,8.48
2023-04-12T15:01:25.800Z,9.60
2023-04-12T15:03:53.744Z,11.50
2023-04-12T15:06:27.316Z,18.48
2023-04-12T15:08:55.127Z,11.30
2023-04-12T15:11:26.737Z,12.32
2023-04-12T15:13:55.584Z,10.40
2023-04-12T15:16:23.453Z,9.52
2023-04-12T15:18:51.829Z,9.70
2023-04-12T15:21:19.177Z,9.77
2023-04-12T15:23:47.422Z,9.85
2023-04-12T15:26:14.571Z,10.02
2023-04-12T15:28:42.548Z,9.43
2023-04-12T15:31:09.876Z,10.27
2023-04-12T15:33:37.945Z,9.65
2023-04-12T15:36:05.502Z,11.25
2023-04-12T15:38:32.791Z,8.07
2023-04-12T15:41:01.041Z,19.00
2023-04-12T15:43:28.940Z,14.98
2023-04-12T15:45:56.494Z,14.43
2023-04-12T15:48:25.425Z,12.18
2023-04-12T15:50:53.776Z,10.80
2023-04-12T15:53:35.607Z,10.63
2023-04-12T15:56:05.142Z,9.70
2023-04-12T15:58:32.831Z,10.88
2023-04-12T16:00:59.741Z,9.02
2023-04-12T16:03:27.391Z,8.45
2023-04-12T16:05:54.948Z,9.68
2023-04-12T16:08:23.035Z,9.80
2023-04-12T16:10:50.843Z,16.00
2023-04-12T16:13:18.651Z,14.63
2023-04-12T16:15:46.378Z,8.98
2023-04-12T16:18:13.833Z,8.40
2023-04-12T16:20:41.123Z,9.07
2023-04-12T16:23:08.635Z,8.60
2023-04-12T16:25:36.270Z,10.20
2023-04-12T16:28:06.784Z,10.15
2023-04-12T16:30:35.157Z,13.00
2023-04-12T16:33:02.894Z,16.23
2023-04-12T16:35:29.883Z,15.80
2023-04-12T16:37:57.133Z,17.63
2023-04-12T16:40:24.715Z,16.25
2023-04-12T16:42:52.101Z,17.95
2023-04-12T16:45:19.827Z,17.88
2023-04-12T16:47:47.591Z,16.23
2023-04-12T16:50:15.517Z,17.98
2023-04-12T16:52:43.151Z,19.45
2023-04-12T16:55:13.522Z,16.05
2023-04-12T16:57:45.173Z,19.20
2023-04-12T17:00:19.587Z,17.23
2023-04-12T17:02:49.316Z,21.30
2023-04-12T17:05:18.377Z,31.92
2023-04-12T17:07:55.178Z,36.97
2023-04-12T17:10:23.660Z,33.67
2023-04-12T17:12:52.923Z,28.23
2023-04-12T17:15:25.309Z,26.25
2023-04-12T17:17:54.157Z,26.67
2023-04-12T17:20:23.172Z,22.73
2023-04-12T17:22:51.190Z,21.20
2023-04-12T17:25:19.864Z,18.98
2023-04-12T17:27:48.711Z,21.83
2023-04-12T17:30:17.692Z,21.42
2023-04-12T17:35:17.889Z,17.45
2023-04-12T17:37:45.706Z,16.63
2023-04-12T17:40:13.096Z,18.02
2023-04-12T17:42:41.918Z,22.70
2023-04-12T17:45:12.507Z,28.13
2023-04-12T17:47:42.952Z,47.92
2023-04-12T17:50:11.288Z,52.75
2023-04-12T17:52:38.755Z,38.58
2023-04-12T17:55:07.561Z,40.05
2023-04-12T17:57:34.980Z,46.83
2023-04-12T18:00:01.964Z,42.38
2023-04-12T18:02:29.330Z,45.75
2023-04-12T18:04:56.591Z,61.45
2023-04-12T18:07:24.139Z,64.63
2023-04-12T18:09:51.382Z,57.45
2023-04-12T18:12:18.780Z,59.10
2023-04-12T18:14:45.696Z,41.20
2023-04-12T18:17:12.907Z,65.07
2023-04-12T18:19:40.153Z,58.42
2023-04-12T18:22:07.426Z,71.80
2023-04-12T18:24:35.819Z,69.82
2023-04-12T18:29:32.908Z,71.47
2023-04-12T18:32:00.262Z,81.50
2023-04-12T18:34:27.622Z,102.43
2023-04-12T18:36:54.848Z,67.78
2023-04-12T18:39:22.232Z,63.80
2023-04-12T18:41:49.512Z,59.78
2023-04-12T18:44:19.292Z,52.10
2023-04-12T18:46:46.600Z,38.75
2023-04-12T18:49:14.527Z,36.25
2023-04-12T18:51:42.975Z,173.98
2023-04-12T18:54:13.187Z,111.30
2023-04-12T18:56:42.342Z,61.00
2023-04-12T18:59:11.954Z,80.05
2023-04-12T19:01:39.177Z,58.28
2023-04-12T19:04:06.435Z,70.97
2023-04-12T19:06:34.859Z,83.50
2023-04-12T19:09:02.331Z,89.78
2023-04-12T19:11:29.435Z,87.63
2023-04-12T19:13:56.665Z,72.53
2023-04-12T19:16:24.735Z,63.10
2023-04-12T19:18:51.835Z,56.80
2023-04-12T19:21:19.019Z,58.83
2023-04-12T19:23:45.935Z,65.00
2023-04-12T19:26:13.165Z,67.63
2023-04-12T19:28:40.110Z,74.57
2023-04-12T19:31:10.544Z,70.57
2023-04-12T19:33:37.795Z,70.03
2023-04-12T19:36:05.365Z,62.27
2023-04-12T19:38:32.205Z,58.77
2023-04-12T19:40:59.405Z,56.33
2023-04-12T19:43:26.272Z,52.40
2023-04-12T19:45:53.552Z,54.93
2023-04-12T19:48:20.754Z,50.60
2023-04-12T19:50:51.064Z,51.33
2023-04-12T19:53:18.293Z,60.23
2023-04-12T19:55:45.464Z,73.60
2023-04-12T19:58:13.623Z,76.10
2023-04-12T20:00:41.364Z,87.03
2023-04-12T20:03:09.414Z,81.97
2023-04-12T20:05:37.676Z,69.78
2023-04-12T20:08:04.711Z,59.10
2023-04-12T20:10:31.879Z,64.97
2023-04-12T20:12:58.823Z,55.07
2023-04-12T20:15:26.070Z,49.10
2023-04-12T20:17:53.311Z,43.43
2023-04-12T20:20:20.785Z,43.37
2023-04-12T20:22:51.873Z,42.80
2023-04-12T20:25:20.656Z,39.43
2023-04-12T20:27:52.041Z,39.92
2023-04-12T20:30:21.021Z,42.07
2023-04-12T20:32:54.655Z,41.35
2023-04-12T20:35:21.999Z,41.47
2023-04-12T20:37:51.019Z,43.10
2023-04-12T20:40:19.438Z,44.63
2023-04-12T20:42:46.925Z,40.53
2023-04-12T20:45:17.004Z,39.77
2023-04-12T20:47:43.904Z,32.00
2023-04-12T20:50:11.115Z,30.17
2023-04-12T20:52:38.190Z,32.07
2023-04-12T20:55:07.414Z,30.30
2023-04-12T20:57:34.731Z,32.50
2023-04-12T21:00:06.996Z,31.40
2023-04-12T21:02:34.212Z,33.00
2023-04-12T21:05:01.537Z,33.90
2023-04-12T21:07:28.440Z,35.93
2023-04-12T21:09:55.578Z,39.13
2023-04-12T21:12:22.475Z,38.40
2023-04-12T21:14:50.407Z,38.00
2023-04-12T21:17:22.441Z,36.07
2023-04-12T21:19:50.405Z,34.17
2023-04-12T21:22:17.363Z,34.00
2023-04-12T21:24:44.658Z,31.93
2023-04-12T21:27:11.534Z,31.87
2023-04-12T21:29:41.511Z,31.70
2023-04-12T21:32:09.652Z,32.37
2023-04-12T21:34:37.490Z,34.28
2023-04-12T21:37:04.688Z,30.90
2023-04-12T21:39:32.446Z,31.37
2023-04-12T21:41:59.330Z,28.67
2023-04-12T21:44:26.965Z,27.57
2023-04-12T21:46:53.884Z,26.57
2023-04-12T21:49:21.445Z,27.63
2023-04-12T21:51:49.320Z,27.07
2023-04-12T21:54:16.820Z,26.35
2023-04-12T21:56:43.767Z,24.47
2023-04-12T21:59:11.008Z,24.87
2023-04-12T22:01:38.135Z,27.20
2023-04-12T22:04:06.039Z,26.37
2023-04-12T22:06:33.013Z,25.77
2023-04-12T22:09:02.059Z,29.73
2023-04-12T22:11:29.962Z,28.02
2023-04-12T22:13:58.100Z,28.67
2023-04-12T22:16:25.236Z,25.90
2023-04-12T22:18:52.848Z,26.77
2023-04-12T22:21:19.877Z,27.60
2023-04-12T22:23:47.013Z,25.93
2023-04-12T22:26:14.037Z,24.30
2023-04-12T22:28:41.459Z,25.07
2023-04-12T22:31:08.824Z,23.73
2023-04-12T22:33:40.122Z,26.37
2023-04-12T22:36:07.332Z,26.30
2023-04-12T22:38:35.406Z,25.90
2023-04-12T22:41:02.505Z,27.23
2023-04-12T22:43:41.877Z,25.83
2023-04-12T22:46:16.239Z,28.17
2023-04-12T22:48:45.975Z,24.50
2023-04-12T22:51:12.912Z,25.07
2023-04-12T22:53:40.813Z,24.30
2023-04-12T22:56:11.915Z,25.33
2023-04-12T22:58:40.400Z,25.10
2023-04-12T23:01:07.626Z,25.55
2023-04-12T23:03:36.761Z,26.97
2023-04-12T23:06:05.513Z,24.70
2023-04-12T23:08:32.751Z,26.48
2023-04-12T23:11:04.705Z,26.43
2023-04-12T23:13:35.257Z,25.23
2023-04-12T23:16:03.526Z,24.57
2023-04-12T23:18:31.325Z,25.08
2023-04-12T23:20:58.218Z,24.53
2023-04-12T23:23:26.338Z,25.17
2023-04-12T23:25:53.284Z,26.30
2023-04-12T23:28:22.033Z,26.37
2023-04-12T23:30:51.031Z,25.60
2023-04-12T23:33:20.542Z,26.10
2023-04-12T23:35:58.654Z,25.20
2023-04-12T23:38:32.682Z,24.10
2023-04-12T23:41:04.539Z,24.53
2023-04-12T23:43:32.757Z,24.93
2023-04-12T23:46:00.399Z,25.20
2023-04-12T23:48:28.124Z,25.77
2023-04-12T23:50:55.153Z,23.77
2023-04-12T23:53:22.414Z,24.87
2023-04-12T23:55:56.059Z,24.13
2023-04-12T23:58:24.937Z,24.73
